sensor_id;sensor_type;location;lat;lon;timestamp;P1;durP1;ratioP1;P2;durP2;ratioP2
65764;SDS011;52915;53.718;19.946;2022-12-29T00:00:13;43.40;;;16.80;;
65764;SDS011;52915;53.718;19.946;2022-12-29T00:05:37;45.60;;;18.70;;
65764;SDS011;52915;53.718;19.946;2022-12-29T00:10:41;41.00;;;15.90;;
65764;SDS011;52915;53.718;19.946;2022-12-29T00:15:45;49.50;;;16.10;;
65764;SDS011;52915;53.718;19.946;2022-12-29T00:20:54;54.50;;;18.80;;
65764;SDS011;52915;53.718;19.946;2022-12-29T00:26:17;29.10;;;10.90;;
65764;SDS011;52915;53.718;19.946;2022-12-29T00:31:39;43.50;;;18.70;;
65764;SDS011;52915;53.718;19.946;2022-12-29T00:37:01;48.80;;;20.90;;
65764;SDS011;52915;53.718;19.946;2022-12-29T00:42:07;49.00;;;19.40;;
65764;SDS011;52915;53.718;19.946;2022-12-29T00:47:31;34.70;;;13.50;;
65764;SDS011;52915;53.718;19.946;2022-12-29T00:52:36;34.40;;;13.40;;
65764;SDS011;52915;53.718;19.946;2022-12-29T00:57:40;44.00;;;15.90;;
65764;SDS011;52915;53.718;19.946;2022-12-29T01:02:44;36.40;;;15.80;;
65764;SDS011;52915;53.718;19.946;2022-12-29T01:07:49;45.30;;;16.50;;
65764;SDS011;52915;53.718;19.946;2022-12-29T01:12:53;52.40;;;17.10;;
65764;SDS011;52915;53.718;19.946;2022-12-29T01:17:57;46.20;;;17.70;;
65764;SDS011;52915;53.718;19.946;2022-12-29T01:23:01;37.30;;;14.60;;
65764;SDS011;52915;53.718;19.946;2022-12-29T01:28:04;35.80;;;14.20;;
65764;SDS011;52915;53.718;19.946;2022-12-29T01:33:09;41.80;;;15.60;;
65764;SDS011;52915;53.718;19.946;2022-12-29T01:38:13;46.40;;;17.30;;
65764;SDS011;52915;53.718;19.946;2022-12-29T01:43:16;35.60;;;13.30;;
65764;SDS011;52915;53.718;19.946;2022-12-29T01:48:20;33.80;;;14.20;;
65764;SDS011;52915;53.718;19.946;2022-12-29T01:53:32;45.20;;;18.70;;
65764;SDS011;52915;53.718;19.946;2022-12-29T01:58:41;35.70;;;16.20;;
65764;SDS011;52915;53.718;19.946;2022-12-29T02:03:49;36.10;;;14.40;;
65764;SDS011;52915;53.718;19.946;2022-12-29T02:08:56;36.00;;;13.80;;
65764;SDS011;52915;53.718;19.946;2022-12-29T02:14:00;53.00;;;21.10;;
65764;SDS011;52915;53.718;19.946;2022-12-29T02:36:47;28.90;;;13.90;;
65764;SDS011;52915;53.718;19.946;2022-12-29T02:47:22;33.70;;;11.40;;
65764;SDS011;52915;53.718;19.946;2022-12-29T02:52:52;36.90;;;17.90;;
65764;SDS011;52915;53.718;19.946;2022-12-29T02:58:22;51.90;;;22.70;;
65764;SDS011;52915;53.718;19.946;2022-12-29T03:09:06;43.50;;;20.30;;
65764;SDS011;52915;53.718;19.946;2022-12-29T03:14:33;50.50;;;18.80;;
65764;SDS011;52915;53.718;19.946;2022-12-29T03:20:08;55.30;;;23.50;;
65764;SDS011;52915;53.718;19.946;2022-12-29T03:25:42;28.70;;;11.90;;
65764;SDS011;52915;53.718;19.946;2022-12-29T03:30:50;38.00;;;14.90;;
65764;SDS011;52915;53.718;19.946;2022-12-29T03:35:58;32.20;;;15.40;;
65764;SDS011;52915;53.718;19.946;2022-12-29T03:41:10;54.10;;;23.40;;
65764;SDS011;52915;53.718;19.946;2022-12-29T03:46:17;65.50;;;26.50;;
65764;SDS011;52915;53.718;19.946;2022-12-29T03:51:21;68.60;;;26.60;;
65764;SDS011;52915;53.718;19.946;2022-12-29T03:56:25;76.80;;;24.30;;
65764;SDS011;52915;53.718;19.946;2022-12-29T04:01:29;81.20;;;29.00;;
65764;SDS011;52915;53.718;19.946;2022-12-29T04:06:33;56.20;;;18.90;;
65764;SDS011;52915;53.718;19.946;2022-12-29T04:11:37;48.20;;;17.70;;
65764;SDS011;52915;53.718;19.946;2022-12-29T04:16:41;46.00;;;16.10;;
65764;SDS011;52915;53.718;19.946;2022-12-29T04:21:45;43.60;;;16.70;;
65764;SDS011;52915;53.718;19.946;2022-12-29T04:26:49;64.90;;;18.80;;
65764;SDS011;52915;53.718;19.946;2022-12-29T04:31:53;50.60;;;18.00;;
65764;SDS011;52915;53.718;19.946;2022-12-29T04:36:56;61.00;;;18.00;;
65764;SDS011;52915;53.718;19.946;2022-12-29T04:42:00;57.20;;;18.20;;
65764;SDS011;52915;53.718;19.946;2022-12-29T04:47:04;78.70;;;24.70;;
65764;SDS011;52915;53.718;19.946;2022-12-29T04:52:08;80.70;;;21.40;;
65764;SDS011;52915;53.718;19.946;2022-12-29T04:57:11;92.70;;;23.00;;
65764;SDS011;52915;53.718;19.946;2022-12-29T05:02:17;80.80;;;20.80;;
65764;SDS011;52915;53.718;19.946;2022-12-29T05:07:21;52.40;;;17.00;;
65764;SDS011;52915;53.718;19.946;2022-12-29T05:12:24;61.70;;;18.80;;
65764;SDS011;52915;53.718;19.946;2022-12-29T05:17:29;80.20;;;21.20;;
65764;SDS011;52915;53.718;19.946;2022-12-29T05:22:33;64.00;;;19.70;;
65764;SDS011;52915;53.718;19.946;2022-12-29T05:27:37;44.80;;;15.50;;
65764;SDS011;52915;53.718;19.946;2022-12-29T05:32:41;26.90;;;11.70;;
65764;SDS011;52915;53.718;19.946;2022-12-29T05:37:45;18.40;;;9.10;;
65764;SDS011;52915;53.718;19.946;2022-12-29T05:42:49;40.60;;;16.30;;
65764;SDS011;52915;53.718;19.946;2022-12-29T05:47:52;25.90;;;11.90;;
65764;SDS011;52915;53.718;19.946;2022-12-29T05:52:56;94.00;;;27.40;;
65764;SDS011;52915;53.718;19.946;2022-12-29T05:58:00;87.30;;;25.60;;
65764;SDS011;52915;53.718;19.946;2022-12-29T06:03:04;127.70;;;32.70;;
65764;SDS011;52915;53.718;19.946;2022-12-29T06:08:09;114.00;;;25.60;;
65764;SDS011;52915;53.718;19.946;2022-12-29T06:13:13;67.50;;;19.70;;
65764;SDS011;52915;53.718;19.946;2022-12-29T06:18:17;91.00;;;22.70;;
65764;SDS011;52915;53.718;19.946;2022-12-29T06:23:22;84.20;;;22.20;;
65764;SDS011;52915;53.718;19.946;2022-12-29T06:28:26;53.50;;;18.40;;
65764;SDS011;52915;53.718;19.946;2022-12-29T06:33:30;60.90;;;16.70;;
65764;SDS011;52915;53.718;19.946;2022-12-29T06:38:34;63.60;;;21.20;;
65764;SDS011;52915;53.718;19.946;2022-12-29T06:43:39;41.00;;;13.70;;
65764;SDS011;52915;53.718;19.946;2022-12-29T06:48:43;32.40;;;13.00;;
65764;SDS011;52915;53.718;19.946;2022-12-29T06:53:47;44.70;;;15.40;;
65764;SDS011;52915;53.718;19.946;2022-12-29T06:58:51;49.80;;;15.00;;
65764;SDS011;52915;53.718;19.946;2022-12-29T07:03:55;63.10;;;19.90;;
65764;SDS011;52915;53.718;19.946;2022-12-29T07:08:59;65.40;;;19.90;;
65764;SDS011;52915;53.718;19.946;2022-12-29T07:14:03;43.70;;;14.70;;
65764;SDS011;52915;53.718;19.946;2022-12-29T07:19:07;43.40;;;17.10;;
65764;SDS011;52915;53.718;19.946;2022-12-29T07:24:11;58.00;;;16.90;;
65764;SDS011;52915;53.718;19.946;2022-12-29T07:29:15;29.50;;;12.00;;
65764;SDS011;52915;53.718;19.946;2022-12-29T07:34:19;63.60;;;21.20;;
65764;SDS011;52915;53.718;19.946;2022-12-29T07:39:23;60.70;;;18.90;;
65764;SDS011;52915;53.718;19.946;2022-12-29T07:44:27;46.00;;;16.70;;
65764;SDS011;52915;53.718;19.946;2022-12-29T07:49:31;55.10;;;18.30;;
65764;SDS011;52915;53.718;19.946;2022-12-29T07:54:37;79.60;;;19.00;;
65764;SDS011;52915;53.718;19.946;2022-12-29T08:09:35;36.90;;;13.00;;
65764;SDS011;52915;53.718;19.946;2022-12-29T08:14:40;40.50;;;16.30;;
65764;SDS011;52915;53.718;19.946;2022-12-29T08:19:43;45.10;;;17.30;;
65764;SDS011;52915;53.718;19.946;2022-12-29T08:24:48;47.20;;;12.90;;
65764;SDS011;52915;53.718;19.946;2022-12-29T08:29:52;39.40;;;11.80;;
65764;SDS011;52915;53.718;19.946;2022-12-29T08:34:57;62.10;;;18.20;;
65764;SDS011;52915;53.718;19.946;2022-12-29T08:40:02;43.10;;;13.60;;
65764;SDS011;52915;53.718;19.946;2022-12-29T08:45:08;68.70;;;17.30;;
65764;SDS011;52915;53.718;19.946;2022-12-29T08:50:12;35.90;;;13.30;;
65764;SDS011;52915;53.718;19.946;2022-12-29T08:55:16;48.30;;;15.80;;
65764;SDS011;52915;53.718;19.946;2022-12-29T09:00:20;66.90;;;20.80;;
65764;SDS011;52915;53.718;19.946;2022-12-29T09:05:23;62.80;;;15.50;;
65764;SDS011;52915;53.718;19.946;2022-12-29T09:10:27;55.70;;;17.30;;
65764;SDS011;52915;53.718;19.946;2022-12-29T09:15:31;174.50;;;54.50;;
65764;SDS011;52915;53.718;19.946;2022-12-29T09:20:36;62.60;;;22.20;;
65764;SDS011;52915;53.718;19.946;2022-12-29T09:25:40;64.70;;;21.20;;
65764;SDS011;52915;53.718;19.946;2022-12-29T09:30:47;114.40;;;32.30;;
65764;SDS011;52915;53.718;19.946;2022-12-29T09:35:53;101.20;;;31.00;;
65764;SDS011;52915;53.718;19.946;2022-12-29T09:41:14;119.80;;;34.00;;
65764;SDS011;52915;53.718;19.946;2022-12-29T09:46:27;55.10;;;22.20;;
65764;SDS011;52915;53.718;19.946;2022-12-29T09:51:35;61.00;;;20.50;;
65764;SDS011;52915;53.718;19.946;2022-12-29T09:56:43;105.80;;;33.60;;
65764;SDS011;52915;53.718;19.946;2022-12-29T10:02:12;122.40;;;42.10;;
65764;SDS011;52915;53.718;19.946;2022-12-29T10:07:36;108.90;;;36.50;;
65764;SDS011;52915;53.718;19.946;2022-12-29T10:18:27;131.70;;;32.90;;
65764;SDS011;52915;53.718;19.946;2022-12-29T10:23:47;76.20;;;27.90;;
65764;SDS011;52915;53.718;19.946;2022-12-29T10:28:58;168.50;;;54.70;;
65764;SDS011;52915;53.718;19.946;2022-12-29T10:39:50;100.50;;;25.30;;
65764;SDS011;52915;53.718;19.946;2022-12-29T10:44:58;111.00;;;28.10;;
65764;SDS011;52915;53.718;19.946;2022-12-29T10:50:03;119.50;;;33.10;;
65764;SDS011;52915;53.718;19.946;2022-12-29T10:55:24;64.70;;;20.10;;
65764;SDS011;52915;53.718;19.946;2022-12-29T11:00:35;57.90;;;18.30;;
65764;SDS011;52915;53.718;19.946;2022-12-29T11:05:45;54.20;;;16.90;;
65764;SDS011;52915;53.718;19.946;2022-12-29T11:11:09;92.80;;;24.80;;
65764;SDS011;52915;53.718;19.946;2022-12-29T11:16:13;123.60;;;44.30;;
65764;SDS011;52915;53.718;19.946;2022-12-29T11:26:32;143.20;;;44.10;;
65764;SDS011;52915;53.718;19.946;2022-12-29T11:31:49;68.20;;;21.50;;
65764;SDS011;52915;53.718;19.946;2022-12-29T11:37:02;72.00;;;24.00;;
65764;SDS011;52915;53.718;19.946;2022-12-29T11:42:16;124.60;;;37.90;;
65764;SDS011;52915;53.718;19.946;2022-12-29T11:47:28;85.60;;;26.50;;
65764;SDS011;52915;53.718;19.946;2022-12-29T11:52:36;61.40;;;18.70;;
65764;SDS011;52915;53.718;19.946;2022-12-29T11:57:43;111.40;;;27.80;;
65764;SDS011;52915;53.718;19.946;2022-12-29T12:08:19;105.30;;;24.90;;
65764;SDS011;52915;53.718;19.946;2022-12-29T12:30:04;143.30;;;38.50;;
65764;SDS011;52915;53.718;19.946;2022-12-29T12:35:27;145.80;;;40.40;;
65764;SDS011;52915;53.718;19.946;2022-12-29T12:57:28;102.10;;;29.70;;
65764;SDS011;52915;53.718;19.946;2022-12-29T13:35:32;67.20;;;21.80;;
65764;SDS011;52915;53.718;19.946;2022-12-29T13:41:27;90.00;;;28.40;;
65764;SDS011;52915;53.718;19.946;2022-12-29T13:46:44;93.20;;;30.40;;
65764;SDS011;52915;53.718;19.946;2022-12-29T14:07:25;87.80;;;34.70;;
65764;SDS011;52915;53.718;19.946;2022-12-29T14:12:41;110.30;;;30.60;;
65764;SDS011;52915;53.718;19.946;2022-12-29T14:28:16;68.70;;;23.10;;
65764;SDS011;52915;53.718;19.946;2022-12-29T14:33:30;97.40;;;30.00;;
65764;SDS011;52915;53.718;19.946;2022-12-29T14:38:44;158.30;;;38.20;;
65764;SDS011;52915;53.718;19.946;2022-12-29T14:44:14;122.60;;;35.70;;
65764;SDS011;52915;53.718;19.946;2022-12-29T14:49:28;82.60;;;21.90;;
65764;SDS011;52915;53.718;19.946;2022-12-29T14:54:46;129.80;;;38.90;;
65764;SDS011;52915;53.718;19.946;2022-12-29T15:00:31;148.20;;;38.60;;
65764;SDS011;52915;53.718;19.946;2022-12-29T15:05:43;185.40;;;45.00;;
65764;SDS011;52915;53.718;19.946;2022-12-29T15:16:23;111.90;;;26.90;;
65764;SDS011;52915;53.718;19.946;2022-12-29T15:21:33;128.30;;;32.20;;
65764;SDS011;52915;53.718;19.946;2022-12-29T15:26:44;130.40;;;37.40;;
65764;SDS011;52915;53.718;19.946;2022-12-29T15:31:50;118.50;;;35.70;;
65764;SDS011;52915;53.718;19.946;2022-12-29T15:36:54;102.50;;;26.30;;
65764;SDS011;52915;53.718;19.946;2022-12-29T15:42:26;125.50;;;33.00;;
65764;SDS011;52915;53.718;19.946;2022-12-29T15:47:44;161.50;;;43.60;;
65764;SDS011;52915;53.718;19.946;2022-12-29T15:52:56;135.00;;;33.60;;
65764;SDS011;52915;53.718;19.946;2022-12-29T15:58:05;121.80;;;31.10;;
65764;SDS011;52915;53.718;19.946;2022-12-29T16:03:24;82.00;;;22.30;;
65764;SDS011;52915;53.718;19.946;2022-12-29T16:08:36;97.60;;;25.40;;
65764;SDS011;52915;53.718;19.946;2022-12-29T16:13:43;115.80;;;27.90;;
65764;SDS011;52915;53.718;19.946;2022-12-29T16:18:49;81.40;;;26.60;;
65764;SDS011;52915;53.718;19.946;2022-12-29T16:24:06;144.30;;;37.20;;
65764;SDS011;52915;53.718;19.946;2022-12-29T16:29:32;55.40;;;16.00;;
65764;SDS011;52915;53.718;19.946;2022-12-29T16:39:41;97.60;;;29.20;;
65764;SDS011;52915;53.718;19.946;2022-12-29T16:44:45;121.50;;;33.20;;
65764;SDS011;52915;53.718;19.946;2022-12-29T16:49:52;148.40;;;35.10;;
65764;SDS011;52915;53.718;19.946;2022-12-29T16:54:59;145.40;;;40.00;;
65764;SDS011;52915;53.718;19.946;2022-12-29T17:00:16;190.90;;;49.20;;
65764;SDS011;52915;53.718;19.946;2022-12-29T17:05:25;304.20;;;77.60;;
65764;SDS011;52915;53.718;19.946;2022-12-29T17:10:33;320.90;;;87.00;;
65764;SDS011;52915;53.718;19.946;2022-12-29T17:15:55;153.70;;;43.60;;
65764;SDS011;52915;53.718;19.946;2022-12-29T17:21:02;90.30;;;29.40;;
65764;SDS011;52915;53.718;19.946;2022-12-29T17:26:07;92.50;;;26.60;;
65764;SDS011;52915;53.718;19.946;2022-12-29T17:31:13;113.80;;;33.50;;
65764;SDS011;52915;53.718;19.946;2022-12-29T17:36:17;122.60;;;34.90;;
65764;SDS011;52915;53.718;19.946;2022-12-29T17:41:21;92.50;;;28.30;;
65764;SDS011;52915;53.718;19.946;2022-12-29T17:46:25;97.30;;;29.70;;
65764;SDS011;52915;53.718;19.946;2022-12-29T17:51:29;111.80;;;32.70;;
65764;SDS011;52915;53.718;19.946;2022-12-29T17:56:33;119.40;;;31.80;;
65764;SDS011;52915;53.718;19.946;2022-12-29T18:01:39;115.30;;;32.70;;
65764;SDS011;52915;53.718;19.946;2022-12-29T18:06:48;85.80;;;31.80;;
65764;SDS011;52915;53.718;19.946;2022-12-29T18:11:54;79.00;;;26.60;;
65764;SDS011;52915;53.718;19.946;2022-12-29T18:16:59;79.10;;;29.30;;
65764;SDS011;52915;53.718;19.946;2022-12-29T18:22:03;56.20;;;22.80;;
65764;SDS011;52915;53.718;19.946;2022-12-29T18:27:12;65.60;;;22.30;;
65764;SDS011;52915;53.718;19.946;2022-12-29T18:32:21;102.70;;;31.60;;
65764;SDS011;52915;53.718;19.946;2022-12-29T18:37:26;83.30;;;24.90;;
65764;SDS011;52915;53.718;19.946;2022-12-29T18:42:29;72.60;;;25.20;;
65764;SDS011;52915;53.718;19.946;2022-12-29T18:47:33;124.30;;;37.80;;
65764;SDS011;52915;53.718;19.946;2022-12-29T18:52:37;125.10;;;37.70;;
65764;SDS011;52915;53.718;19.946;2022-12-29T18:57:42;109.50;;;32.60;;
65764;SDS011;52915;53.718;19.946;2022-12-29T19:02:49;91.70;;;27.40;;
65764;SDS011;52915;53.718;19.946;2022-12-29T19:07:55;90.10;;;24.70;;
65764;SDS011;52915;53.718;19.946;2022-12-29T19:12:59;72.70;;;27.00;;
65764;SDS011;52915;53.718;19.946;2022-12-29T19:18:05;59.80;;;21.30;;
65764;SDS011;52915;53.718;19.946;2022-12-29T19:23:33;106.70;;;27.70;;
65764;SDS011;52915;53.718;19.946;2022-12-29T19:28:37;113.10;;;32.80;;
65764;SDS011;52915;53.718;19.946;2022-12-29T19:33:41;132.30;;;38.30;;
65764;SDS011;52915;53.718;19.946;2022-12-29T19:38:45;115.60;;;32.80;;
65764;SDS011;52915;53.718;19.946;2022-12-29T19:43:49;141.30;;;38.60;;
65764;SDS011;52915;53.718;19.946;2022-12-29T19:48:53;85.10;;;24.50;;
65764;SDS011;52915;53.718;19.946;2022-12-29T19:54:01;104.00;;;33.30;;
65764;SDS011;52915;53.718;19.946;2022-12-29T19:59:05;111.30;;;33.80;;
65764;SDS011;52915;53.718;19.946;2022-12-29T20:04:09;115.50;;;35.50;;
65764;SDS011;52915;53.718;19.946;2022-12-29T20:09:15;363.30;;;117.30;;
65764;SDS011;52915;53.718;19.946;2022-12-29T20:14:19;319.40;;;104.60;;
65764;SDS011;52915;53.718;19.946;2022-12-29T20:19:24;672.10;;;178.20;;
65764;SDS011;52915;53.718;19.946;2022-12-29T20:24:29;403.60;;;104.90;;
65764;SDS011;52915;53.718;19.946;2022-12-29T20:29:36;603.90;;;206.60;;
65764;SDS011;52915;53.718;19.946;2022-12-29T20:34:43;794.40;;;283.50;;
65764;SDS011;52915;53.718;19.946;2022-12-29T20:39:48;423.10;;;116.30;;
65764;SDS011;52915;53.718;19.946;2022-12-29T20:44:53;259.70;;;69.60;;
65764;SDS011;52915;53.718;19.946;2022-12-29T20:49:57;436.20;;;118.60;;
65764;SDS011;52915;53.718;19.946;2022-12-29T20:55:01;604.80;;;183.20;;
65764;SDS011;52915;53.718;19.946;2022-12-29T21:00:12;554.20;;;162.70;;
65764;SDS011;52915;53.718;19.946;2022-12-29T21:05:37;384.10;;;98.40;;
65764;SDS011;52915;53.718;19.946;2022-12-29T21:10:44;259.60;;;71.80;;
65764;SDS011;52915;53.718;19.946;2022-12-29T21:15:58;188.10;;;54.50;;
65764;SDS011;52915;53.718;19.946;2022-12-29T21:21:29;86.00;;;27.80;;
65764;SDS011;52915;53.718;19.946;2022-12-29T21:26:33;103.20;;;32.50;;
65764;SDS011;52915;53.718;19.946;2022-12-29T21:31:38;47.10;;;17.30;;
65764;SDS011;52915;53.718;19.946;2022-12-29T21:36:42;896.70;;;188.10;;
65764;SDS011;52915;53.718;19.946;2022-12-29T21:41:46;359.70;;;87.80;;
65764;SDS011;52915;53.718;19.946;2022-12-29T21:46:50;157.50;;;35.60;;
65764;SDS011;52915;53.718;19.946;2022-12-29T21:51:54;122.60;;;30.20;;
65764;SDS011;52915;53.718;19.946;2022-12-29T21:57:00;103.40;;;20.20;;
65764;SDS011;52915;53.718;19.946;2022-12-29T22:02:32;94.80;;;22.40;;
65764;SDS011;52915;53.718;19.946;2022-12-29T22:07:55;72.10;;;22.80;;
65764;SDS011;52915;53.718;19.946;2022-12-29T22:13:19;58.50;;;17.70;;
65764;SDS011;52915;53.718;19.946;2022-12-29T22:18:23;55.50;;;18.50;;
65764;SDS011;52915;53.718;19.946;2022-12-29T22:23:28;61.00;;;19.20;;
65764;SDS011;52915;53.718;19.946;2022-12-29T22:28:34;67.50;;;20.60;;
65764;SDS011;52915;53.718;19.946;2022-12-29T22:33:44;80.20;;;21.80;;
65764;SDS011;52915;53.718;19.946;2022-12-29T22:38:48;64.30;;;20.10;;
65764;SDS011;52915;53.718;19.946;2022-12-29T22:43:52;71.50;;;20.50;;
65764;SDS011;52915;53.718;19.946;2022-12-29T22:48:57;58.70;;;19.30;;
65764;SDS011;52915;53.718;19.946;2022-12-29T22:54:01;47.40;;;18.10;;
65764;SDS011;52915;53.718;19.946;2022-12-29T22:59:05;54.20;;;19.30;;
65764;SDS011;52915;53.718;19.946;2022-12-29T23:04:09;63.20;;;20.20;;
65764;SDS011;52915;53.718;19.946;2022-12-29T23:09:33;50.50;;;15.40;;
65764;SDS011;52915;53.718;19.946;2022-12-29T23:14:37;53.20;;;18.50;;
65764;SDS011;52915;53.718;19.946;2022-12-29T23:19:41;55.70;;;18.20;;
65764;SDS011;52915;53.718;19.946;2022-12-29T23:24:45;58.10;;;21.00;;
65764;SDS011;52915;53.718;19.946;2022-12-29T23:29:49;67.90;;;21.00;;
65764;SDS011;52915;53.718;19.946;2022-12-29T23:34:53;63.30;;;21.10;;
65764;SDS011;52915;53.718;19.946;2022-12-29T23:39:57;45.30;;;14.30;;
65764;SDS011;52915;53.718;19.946;2022-12-29T23:45:01;50.10;;;21.10;;
65764;SDS011;52915;53.718;19.946;2022-12-29T23:50:06;57.10;;;18.90;;
65764;SDS011;52915;53.718;19.946;2022-12-29T23:55:11;45.70;;;16.40;;
